GB-0527 weather

Metropolitan Police Air Support Unit
England, United Kingdom

Public forecast

Using degrees Celsius for public forecast. Weather courtesy of forecast.io.

Closest aviation weather report (METAR) to Metropolitan Police Air Support Unit

Closest report is London City Airport, 9.0 nm (16.7 km) S. Retrieved 2020/02/18 00:20 UTC (0 seconds ago):

EGLC 180020Z AUTO 25013KT 9999 NCD 06/02 Q1018

Closest aviation forecast (TAF) to Metropolitan Police Air Support Unit

Forecast is more than 12 hours old.

Closest forecast is London City Airport, 9.0 nm (16.7 km) S. Retrieved 2018/10/15 21:30 UTC (1 year ago):

TAF EGLC 152119Z 1521/1621 CNL